createdAt,value
2023-03-03T00:00:35.204Z,-56
2023-03-03T00:03:09.397Z,-58
2023-03-03T00:05:38.396Z,-57
2023-03-03T00:08:08.115Z,-58
2023-03-03T00:10:36.409Z,-57
2023-03-03T00:13:04.894Z,-59
2023-03-03T00:15:33.142Z,-58
2023-03-03T00:18:01.694Z,-57
2023-03-03T00:20:37.872Z,-58
2023-03-03T00:23:23.720Z,-59
2023-03-03T00:25:54.637Z,-58
2023-03-03T00:28:31.079Z,-56
2023-03-03T00:31:02.031Z,-59
2023-03-03T00:33:34.639Z,-57
2023-03-03T00:36:28.602Z,-59
2023-03-03T00:39:18.634Z,-58
2023-03-03T00:41:46.896Z,-58
2023-03-03T00:44:41.592Z,-59
2023-03-03T00:47:32.748Z,-58
2023-03-03T00:50:32.521Z,-58
2023-03-03T00:53:05.603Z,-60
2023-03-03T00:55:36.877Z,-56
2023-03-03T00:58:05.794Z,-58
2023-03-03T01:00:34.472Z,-59
2023-03-03T01:03:07.156Z,-59
2023-03-03T01:05:36.061Z,-58
2023-03-03T01:08:04.945Z,-59
2023-03-03T01:10:40.267Z,-58
2023-03-03T01:13:09.470Z,-57
2023-03-03T01:15:39.048Z,-58
2023-03-03T01:18:08.677Z,-59
2023-03-03T01:20:36.847Z,-59
2023-03-03T01:23:05.258Z,-58
2023-03-03T01:25:35.138Z,-58
2023-03-03T01:28:03.526Z,-56
2023-03-03T01:30:32.412Z,-58
2023-03-03T01:33:00.561Z,-57
2023-03-03T01:35:29.903Z,-56
2023-03-03T01:37:59.178Z,-58
2023-03-03T01:40:31.034Z,-58
2023-03-03T01:43:02.865Z,-58
2023-03-03T01:45:39.235Z,-57
2023-03-03T01:48:15.137Z,-59
2023-03-03T01:50:51.161Z,-58
2023-03-03T01:53:24.015Z,-58
2023-03-03T01:55:54.975Z,-58
2023-03-03T01:58:31.247Z,-58
2023-03-03T02:01:04.785Z,-58
2023-03-03T02:03:34.907Z,-57
2023-03-03T02:06:09.673Z,-59
2023-03-03T02:08:47.178Z,-57
2023-03-03T02:11:16.130Z,-58
2023-03-03T02:13:45.641Z,-59
2023-03-03T02:16:14.158Z,-59
2023-03-03T02:18:42.637Z,-58
2023-03-03T02:21:15.314Z,-58
2023-03-03T02:23:54.314Z,-58
2023-03-03T02:26:28.078Z,-58
2023-03-03T02:28:56.260Z,-59
2023-03-03T02:31:27.597Z,-59
2023-03-03T02:33:56.770Z,-58
2023-03-03T02:36:29.524Z,-57
2023-03-03T02:39:06.642Z,-58
2023-03-03T02:41:44.621Z,-58
2023-03-03T02:44:15.991Z,-58
2023-03-03T02:46:46.297Z,-59
2023-03-03T02:49:17.590Z,-57
2023-03-03T02:51:46.404Z,-59
2023-03-03T02:54:18.020Z,-56
2023-03-03T02:56:48.104Z,-59
2023-03-03T02:59:16.876Z,-58
2023-03-03T03:01:46.060Z,-58
2023-03-03T03:04:17.537Z,-58
2023-03-03T03:06:46.470Z,-58
2023-03-03T03:09:16.651Z,-57
2023-03-03T03:11:45.406Z,-58
2023-03-03T03:14:15.900Z,-59
2023-03-03T03:16:44.191Z,-59
2023-03-03T03:19:12.631Z,-58
2023-03-03T03:21:40.871Z,-57
2023-03-03T03:24:09.434Z,-60
2023-03-03T03:26:37.591Z,-59
2023-03-03T03:29:06.190Z,-58
2023-03-03T03:31:36.473Z,-58
2023-03-03T03:34:04.584Z,-58
2023-03-03T03:36:32.699Z,-58
2023-03-03T03:39:02.766Z,-57
2023-03-03T03:41:30.908Z,-59
2023-03-03T03:43:59.004Z,-57
2023-03-03T03:46:27.170Z,-58
2023-03-03T03:48:56.598Z,-58
2023-03-03T03:51:24.690Z,-58
2023-03-03T03:53:52.874Z,-58
2023-03-03T03:56:21.004Z,-58
2023-03-03T03:58:49.130Z,-56
2023-03-03T04:01:17.515Z,-58
2023-03-03T04:03:45.610Z,-58
2023-03-03T04:06:15.097Z,-58
2023-03-03T04:08:43.282Z,-57
2023-03-03T04:11:11.524Z,-57
2023-03-03T04:13:39.661Z,-57
2023-03-03T04:16:08.182Z,-59
2023-03-03T04:18:36.342Z,-58
2023-03-03T04:21:04.695Z,-58
2023-03-03T04:23:34.220Z,-59
2023-03-03T04:26:02.364Z,-58
2023-03-03T04:28:30.518Z,-57
2023-03-03T04:30:58.773Z,-58
2023-03-03T04:33:27.229Z,-58
2023-03-03T04:35:55.405Z,-59
2023-03-03T04:38:23.564Z,-58
2023-03-03T04:40:53.115Z,-59
2023-03-03T04:43:21.598Z,-58
2023-03-03T04:45:50.016Z,-58
2023-03-03T04:48:18.133Z,-59
2023-03-03T04:50:46.581Z,-58
2023-03-03T04:53:14.709Z,-59
2023-03-03T04:55:43.178Z,-59
2023-03-03T04:58:12.803Z,-58
2023-03-03T05:00:40.931Z,-59
2023-03-03T05:03:11.536Z,-59
2023-03-03T05:05:39.686Z,-59
2023-03-03T05:08:08.206Z,-58
2023-03-03T05:10:36.862Z,-58
2023-03-03T05:13:05.952Z,-57
2023-03-03T05:15:35.466Z,-58
2023-03-03T05:18:03.747Z,-59
2023-03-03T05:20:31.850Z,-59
2023-03-03T05:23:01.572Z,-59
2023-03-03T05:25:29.702Z,-60
2023-03-03T05:27:57.826Z,-59
2023-03-03T05:30:25.953Z,-57
2023-03-03T05:32:55.390Z,-59
2023-03-03T05:35:23.584Z,-60
2023-03-03T05:37:52.764Z,-59
2023-03-03T05:40:20.924Z,-59
2023-03-03T05:42:49.126Z,-58
2023-03-03T05:45:20.371Z,-60
2023-03-03T05:47:48.918Z,-59
2023-03-03T05:50:18.844Z,-59
2023-03-03T05:52:49.590Z,-59
2023-03-03T05:55:18.696Z,-60
2023-03-03T05:57:47.137Z,-58
2023-03-03T06:00:17.681Z,-57
2023-03-03T06:02:45.817Z,-61
2023-03-03T06:05:14.113Z,-59
2023-03-03T06:07:43.780Z,-59
2023-03-03T06:10:13.126Z,-57
2023-03-03T06:12:42.151Z,-60
2023-03-03T06:15:11.890Z,-60
2023-03-03T06:17:40.398Z,-59
2023-03-03T06:20:10.574Z,-58
2023-03-03T06:22:38.736Z,-60
2023-03-03T06:25:09.537Z,-59
2023-03-03T06:27:37.962Z,-58
2023-03-03T06:30:08.106Z,-60
2023-03-03T06:32:36.384Z,-60
2023-03-03T06:35:04.902Z,-59
2023-03-03T06:37:33.005Z,-59
2023-03-03T06:40:01.152Z,-59
2023-03-03T06:42:30.613Z,-57
2023-03-03T06:44:58.784Z,-56
2023-03-03T06:47:27.140Z,-57
2023-03-03T06:49:55.307Z,-57
2023-03-03T06:52:27.731Z,-59
2023-03-03T06:54:59.587Z,-58
2023-03-03T06:57:31.604Z,-58
2023-03-03T07:00:17.078Z,-59
2023-03-03T07:02:45.254Z,-56
2023-03-03T07:05:18.218Z,-59
2023-03-03T07:07:46.553Z,-58
2023-03-03T07:10:25.145Z,-58
2023-03-03T07:12:55.464Z,-58
2023-03-03T07:15:29.688Z,-58
2023-03-03T07:17:59.670Z,-59
2023-03-03T07:20:39.133Z,-59
2023-03-03T07:23:22.284Z,-60
2023-03-03T07:25:50.501Z,-60
2023-03-03T07:28:25.685Z,-58
2023-03-03T07:30:55.610Z,-60
2023-03-03T07:33:29.462Z,-58
2023-03-03T07:36:00.350Z,-57
2023-03-03T07:38:38.810Z,-58
2023-03-03T07:41:15.610Z,-58
2023-03-03T07:43:54.480Z,-58
2023-03-03T07:46:31.981Z,-59
2023-03-03T07:49:01.520Z,-57
2023-03-03T07:51:39.565Z,-59
2023-03-03T07:54:31.083Z,-59
2023-03-03T07:57:09.036Z,-59
2023-03-03T07:59:42.786Z,-57
2023-03-03T08:02:38.792Z,-57
2023-03-03T08:05:37.137Z,-58
2023-03-03T08:08:29.348Z,-60
2023-03-03T08:11:00.161Z,-58
2023-03-03T08:13:38.028Z,-59
2023-03-03T08:16:37.019Z,-58
2023-03-03T08:19:07.986Z,-57
2023-03-03T08:21:37.641Z,-58
2023-03-03T08:24:06.656Z,-58
2023-03-03T08:26:34.771Z,-57
2023-03-03T08:29:03.229Z,-59
2023-03-03T08:31:41.316Z,-57
2023-03-03T08:34:10.294Z,-58
2023-03-03T08:36:38.451Z,-58
2023-03-03T08:39:07.185Z,-57
2023-03-03T08:41:35.321Z,-56
2023-03-03T08:44:03.448Z,-57
2023-03-03T08:46:33.398Z,-53
2023-03-03T08:49:01.545Z,-57
2023-03-03T08:51:29.717Z,-56
2023-03-03T08:53:57.935Z,-54
2023-03-03T08:56:26.097Z,-56
2023-03-03T08:59:02.070Z,-56
2023-03-03T09:01:32.951Z,-54
2023-03-03T09:04:01.369Z,-55
2023-03-03T09:06:29.599Z,-58
2023-03-03T09:08:57.857Z,-59
2023-03-03T09:11:29.929Z,-58
2023-03-03T09:14:11.010Z,-53
2023-03-03T09:16:48.327Z,-56
2023-03-03T09:19:29.482Z,-55
2023-03-03T09:22:03.946Z,-56
2023-03-03T09:24:37.157Z,-55
2023-03-03T09:27:23.195Z,-55
2023-03-03T09:29:51.403Z,-59
2023-03-03T09:32:35.267Z,-57
2023-03-03T09:35:38.564Z,-56
2023-03-03T09:38:26.328Z,-54
2023-03-03T09:41:37.779Z,-54
2023-03-03T09:44:39.039Z,-55
2023-03-03T09:47:28.891Z,-55
2023-03-03T09:50:12.873Z,-54
2023-03-03T09:52:53.691Z,-54
2023-03-03T09:55:38.705Z,-57
2023-03-03T09:58:32.740Z,-54
2023-03-03T10:01:33.866Z,-58
2023-03-03T10:04:24.094Z,-55
2023-03-03T10:07:13.692Z,-52
2023-03-03T10:10:04.333Z,-56
2023-03-03T10:12:47.601Z,-58
2023-03-03T10:15:39.335Z,-57
2023-03-03T10:18:24.384Z,-58
2023-03-03T10:21:09.756Z,-59
2023-03-03T10:23:57.626Z,-59
2023-03-03T10:27:09.881Z,-57
2023-03-03T10:29:49.456Z,-57
2023-03-03T10:32:51.773Z,-56
2023-03-03T10:36:06.714Z,-58
2023-03-03T10:38:57.896Z,-58
2023-03-03T10:41:49.896Z,-57
2023-03-03T10:45:02.249Z,-58
2023-03-03T10:47:51.573Z,-59
2023-03-03T10:50:31.705Z,-57
2023-03-03T10:53:22.111Z,-57
2023-03-03T10:56:19.238Z,-57
2023-03-03T10:59:02.947Z,-56
2023-03-03T11:01:46.261Z,-56
2023-03-03T11:04:51.630Z,-59
2023-03-03T11:07:30.094Z,-60
2023-03-03T11:10:19.710Z,-60
2023-03-03T11:13:03.266Z,-58
2023-03-03T11:15:45.858Z,-60
2023-03-03T11:18:36.382Z,-58
2023-03-03T11:21:16.944Z,-57
2023-03-03T11:24:03.095Z,-58
2023-03-03T11:26:57.681Z,-58
2023-03-03T11:29:49.586Z,-59
2023-03-03T11:32:29.831Z,-58
2023-03-03T11:35:20.560Z,-57
2023-03-03T11:38:08.830Z,-58
2023-03-03T11:40:49.948Z,-58
2023-03-03T11:43:36.737Z,-58
2023-03-03T11:46:12.768Z,-58
2023-03-03T11:48:54.978Z,-58
2023-03-03T11:51:41.642Z,-56
2023-03-03T11:54:19.508Z,-59
2023-03-03T11:56:49.782Z,-57
2023-03-03T11:59:52.114Z,-57
2023-03-03T12:03:14.145Z,-59
2023-03-03T12:05:57.946Z,-58
2023-03-03T12:08:45.730Z,-58
2023-03-03T12:11:23.782Z,-59
2023-03-03T12:14:02.955Z,-58
2023-03-03T12:16:48.619Z,-57
2023-03-03T12:19:37.274Z,-57
2023-03-03T12:22:33.488Z,-58
2023-03-03T12:25:34.926Z,-59
2023-03-03T12:28:12.893Z,-57
2023-03-03T12:31:11.040Z,-58
2023-03-03T12:33:54.042Z,-56
2023-03-03T12:36:40.710Z,-58
2023-03-03T12:39:33.722Z,-60
2023-03-03T12:42:13.171Z,-55
2023-03-03T12:44:50.149Z,-58
2023-03-03T12:47:28.806Z,-59
2023-03-03T12:50:25.352Z,-59
2023-03-03T12:53:10.870Z,-58
2023-03-03T12:55:53.742Z,-56
2023-03-03T12:58:38.366Z,-55
2023-03-03T13:01:28.466Z,-56
2023-03-03T13:04:09.576Z,-56
2023-03-03T13:06:48.643Z,-58
2023-03-03T13:09:32.900Z,-59
2023-03-03T13:12:29.148Z,-57
2023-03-03T13:15:04.390Z,-56
2023-03-03T13:17:43.837Z,-55
2023-03-03T13:20:27.399Z,-56
2023-03-03T13:23:08.381Z,-57
2023-03-03T13:25:54.175Z,-58
2023-03-03T13:28:36.873Z,-56
2023-03-03T13:31:13.047Z,-58
2023-03-03T13:33:48.867Z,-57
2023-03-03T13:36:19.729Z,-56
2023-03-03T13:38:54.567Z,-60
2023-03-03T13:41:32.142Z,-56
2023-03-03T13:44:10.307Z,-56
2023-03-03T13:46:48.283Z,-56
2023-03-03T13:49:42.441Z,-57
2023-03-03T13:52:13.412Z,-64
2023-03-03T13:55:10.857Z,-63
2023-03-03T13:57:58.623Z,-61
2023-03-03T14:00:47.806Z,-60
2023-03-03T14:03:50.782Z,-59
2023-03-03T14:06:22.878Z,-59
2023-03-03T14:09:23.443Z,-61
2023-03-03T14:12:04.977Z,-60
2023-03-03T14:14:48.848Z,-61
2023-03-03T14:17:30.562Z,-59
2023-03-03T14:20:19.991Z,-60
2023-03-03T14:22:55.634Z,-60
2023-03-03T14:25:24.593Z,-61
2023-03-03T14:28:06.150Z,-62
2023-03-03T14:30:40.566Z,-60
2023-03-03T14:33:26.129Z,-59
2023-03-03T14:36:11.763Z,-60
2023-03-03T14:38:51.632Z,-63
2023-03-03T14:41:37.594Z,-61
2023-03-03T14:44:27.667Z,-62
2023-03-03T14:47:24.234Z,-63
2023-03-03T14:49:54.614Z,-64
2023-03-03T14:52:27.031Z,-62
2023-03-03T14:54:58.173Z,-63
2023-03-03T14:57:46.457Z,-62
2023-03-03T15:00:36.513Z,-61
2023-03-03T15:03:23.286Z,-61
2023-03-03T15:05:53.191Z,-63
2023-03-03T15:08:33.304Z,-63
2023-03-03T15:11:20.458Z,-65
2023-03-03T15:13:48.664Z,-63
2023-03-03T15:16:22.682Z,-63
2023-03-03T15:19:38.875Z,-63
2023-03-03T15:22:20.939Z,-69
2023-03-03T15:25:03.312Z,-63
2023-03-03T15:27:40.628Z,-66
2023-03-03T15:30:24.644Z,-63
2023-03-03T15:33:01.111Z,-67
2023-03-03T15:35:53.792Z,-65
2023-03-03T15:38:35.881Z,-65
2023-03-03T15:41:20.297Z,-65
2023-03-03T15:44:04.094Z,-63
2023-03-03T15:46:50.052Z,-61
2023-03-03T15:49:46.988Z,-62
2023-03-03T15:52:39.405Z,-65
2023-03-03T15:55:38.334Z,-63
2023-03-03T15:58:33.167Z,-63
2023-03-03T16:01:16.125Z,-63
2023-03-03T16:03:50.694Z,-63
2023-03-03T16:06:34.508Z,-62
2023-03-03T16:09:20.926Z,-62
2023-03-03T16:12:01.061Z,-63
2023-03-03T16:15:06.264Z,-64
2023-03-03T16:17:47.747Z,-63
2023-03-03T16:20:24.266Z,-61
2023-03-03T16:23:18.739Z,-58
2023-03-03T16:26:05.753Z,-61
2023-03-03T16:28:53.348Z,-61
2023-03-03T16:31:30.209Z,-55
2023-03-03T16:34:12.900Z,-59
2023-03-03T16:37:01.450Z,-59
2023-03-03T16:39:52.258Z,-66
2023-03-03T16:42:30.235Z,-63
2023-03-03T16:45:22.725Z,-65
2023-03-03T16:48:21.974Z,-62
2023-03-03T16:51:05.446Z,-65
2023-03-03T16:53:55.219Z,-63
2023-03-03T16:56:29.657Z,-63
2023-03-03T16:59:25.696Z,-63
2023-03-03T17:02:19.272Z,-62
2023-03-03T17:04:58.742Z,-64
2023-03-03T17:07:44.536Z,-65
2023-03-03T17:10:28.254Z,-65
2023-03-03T17:13:39.877Z,-62
2023-03-03T17:16:23.455Z,-61
2023-03-03T17:19:07.197Z,-63
2023-03-03T17:21:57.156Z,-62
2023-03-03T17:24:40.533Z,-63
2023-03-03T17:27:26.817Z,-63
2023-03-03T17:30:12.307Z,-63
2023-03-03T17:33:01.911Z,-64
2023-03-03T17:35:57.508Z,-65
2023-03-03T17:38:43.473Z,-64
2023-03-03T17:41:21.177Z,-62
2023-03-03T17:44:03.096Z,-62
2023-03-03T17:46:42.038Z,-63
2023-03-03T17:50:01.474Z,-63
2023-03-03T17:53:09.567Z,-63
2023-03-03T17:55:57.380Z,-64
2023-03-03T17:59:08.166Z,-63
2023-03-03T18:02:25.650Z,-64
2023-03-03T18:05:22.334Z,-63
2023-03-03T18:08:22.096Z,-64
2023-03-03T18:11:29.635Z,-62
2023-03-03T18:14:34.247Z,-62
2023-03-03T18:17:45.563Z,-62
2023-03-03T18:20:45.314Z,-63
2023-03-03T18:23:49.742Z,-62
2023-03-03T18:26:42.008Z,-62
2023-03-03T18:29:29.516Z,-63
2023-03-03T18:32:20.403Z,-63
2023-03-03T18:34:48.546Z,-63
2023-03-03T18:37:43.765Z,-63
2023-03-03T18:40:36.351Z,-66
2023-03-03T18:43:55.702Z,-63
2023-03-03T18:46:51.243Z,-62
2023-03-03T18:49:40.130Z,-63
2023-03-03T18:52:23.630Z,-62
2023-03-03T18:55:25.836Z,-61
2023-03-03T18:58:34.234Z,-62
2023-03-03T19:01:41.540Z,-61
2023-03-03T19:04:24.100Z,-62
2023-03-03T19:07:27.579Z,-60
2023-03-03T19:10:01.550Z,-61
2023-03-03T19:12:53.591Z,-61
2023-03-03T19:16:01.026Z,-62
2023-03-03T19:18:30.430Z,-61
2023-03-03T19:21:01.740Z,-60
2023-03-03T19:23:54.259Z,-57
2023-03-03T19:26:55.207Z,-61
2023-03-03T19:29:58.758Z,-59
2023-03-03T19:33:03.154Z,-61
2023-03-03T19:35:46.071Z,-59
2023-03-03T19:38:33.161Z,-61
2023-03-03T19:41:18.109Z,-61
2023-03-03T19:43:57.710Z,-61
2023-03-03T19:46:56.216Z,-61
2023-03-03T19:49:44.848Z,-61
2023-03-03T19:52:28.648Z,-60
2023-03-03T19:55:23.012Z,-61
2023-03-03T19:58:06.134Z,-61
2023-03-03T20:00:43.137Z,-60
2023-03-03T20:04:08.265Z,-60
2023-03-03T20:06:55.043Z,-61
2023-03-03T20:09:38.467Z,-60
2023-03-03T20:12:26.427Z,-61
2023-03-03T20:15:09.604Z,-60
2023-03-03T20:17:54.395Z,-61
2023-03-03T20:20:52.450Z,-62
2023-03-03T20:23:32.095Z,-59
2023-03-03T20:26:10.250Z,-64
2023-03-03T20:29:17.745Z,-64
2023-03-03T20:31:56.042Z,-60
2023-03-03T20:34:43.993Z,-60
2023-03-03T20:37:23.055Z,-61
2023-03-03T20:40:06.955Z,-60
2023-03-03T20:42:53.018Z,-60
2023-03-03T20:45:39.867Z,-61
2023-03-03T20:48:27.173Z,-60
2023-03-03T20:51:05.755Z,-61
2023-03-03T20:53:52.138Z,-61
2023-03-03T20:56:29.689Z,-56
2023-03-03T20:59:19.411Z,-61
2023-03-03T21:02:00.806Z,-60
2023-03-03T21:04:31.353Z,-60
2023-03-03T21:07:02.399Z,-61
2023-03-03T21:09:34.101Z,-61
2023-03-03T21:12:10.648Z,-60
2023-03-03T21:14:39.389Z,-62
2023-03-03T21:17:27.956Z,-61
2023-03-03T21:19:56.092Z,-60
2023-03-03T21:22:25.474Z,-61
2023-03-03T21:24:58.820Z,-61
2023-03-03T21:27:30.270Z,-58
2023-03-03T21:30:09.961Z,-62
2023-03-03T21:32:42.334Z,-60
2023-03-03T21:35:13.309Z,-65
2023-03-03T21:37:49.190Z,-61
2023-03-03T21:40:24.391Z,-61
2023-03-03T21:42:54.414Z,-59
2023-03-03T21:45:23.676Z,-60
2023-03-03T21:47:53.475Z,-60
2023-03-03T21:50:22.526Z,-61
2023-03-03T21:52:50.719Z,-61
2023-03-03T21:55:20.294Z,-62
2023-03-03T21:57:48.290Z,-62
2023-03-03T22:00:17.460Z,-62
2023-03-03T22:02:45.527Z,-61
2023-03-03T22:08:09.986Z,-59
2023-03-03T22:10:40.067Z,-60
2023-03-03T22:13:08.214Z,-58
2023-03-03T22:15:36.437Z,-58
2023-03-03T22:18:04.760Z,-59
2023-03-03T22:20:32.944Z,-58
2023-03-03T22:23:01.204Z,-61
2023-03-03T22:25:29.375Z,-61
2023-03-03T22:27:58.992Z,-60
2023-03-03T22:30:27.119Z,-62
2023-03-03T22:32:55.312Z,-61
2023-03-03T22:35:23.734Z,-60
2023-03-03T22:37:52.484Z,-60
2023-03-03T22:40:20.954Z,-62
2023-03-03T22:42:49.229Z,-60
2023-03-03T22:45:18.911Z,-61
2023-03-03T22:47:47.097Z,-60
2023-03-03T22:50:15.360Z,-61
2023-03-03T22:52:43.565Z,-62
2023-03-03T22:55:12.340Z,-59
2023-03-03T22:57:40.492Z,-60
2023-03-03T23:00:13.141Z,-61
2023-03-03T23:02:43.243Z,-63
2023-03-03T23:05:11.766Z,-64
2023-03-03T23:07:41.886Z,-62
2023-03-03T23:10:11.948Z,-60
2023-03-03T23:12:40.178Z,-60
2023-03-03T23:15:13.333Z,-60
2023-03-03T23:17:44.855Z,-60
2023-03-03T23:20:16.284Z,-60
2023-03-03T23:22:44.640Z,-60
2023-03-03T23:25:14.834Z,-61
2023-03-03T23:27:43.944Z,-61
2023-03-03T23:30:16.524Z,-62
2023-03-03T23:32:48.136Z,-62
2023-03-03T23:35:16.683Z,-60
2023-03-03T23:37:44.943Z,-59
2023-03-03T23:40:15.642Z,-62
2023-03-03T23:42:43.884Z,-59
2023-03-03T23:45:13.440Z,-61
2023-03-03T23:47:42.194Z,-60
2023-03-03T23:50:14.457Z,-61
2023-03-03T23:52:42.659Z,-61
2023-03-03T23:55:11.845Z,-61
2023-03-03T23:57:40.095Z,-60
